Time;durP1;ratioP1;P1;durP2;ratioP2;P2;SDS_P1;SDS_P2;PMS_P1;PMS_P2;Temp;Humidity;BMP_temperature;BMP_pressure;BME280_temperature;BME280_humidity;BME280_pressure;Samples;Min_cycle;Max_cycle;Signal;HPM_P1;HPM_P2
2022/10/12 00:02:57;;;;;;;;;;;;;;;18.88;66.78;101967.30;2306218;76;50358;-76
2022/10/12 00:06:12;;;;;;;;;;;;;;;18.89;66.87;101966.80;2306029;76;51272;-76
2022/10/12 00:09:13;;;;;;;;;;;;;;;18.90;66.69;101963.94;2328554;76;51546;-76
2022/10/12 00:12:15;;;;;;;;;;;;;;;18.91;66.72;101964.80;2328676;76;51539;-76
2022/10/12 00:15:16;;;;;;;;;;;;;;;18.91;66.64;101966.98;2328596;76;50716;-76
2022/10/12 00:18:18;;;;;;;;;;;;;;;18.89;66.77;101969.47;2348578;74;51028;-76
2022/10/12 00:21:20;;;;;;;;;;;;;;;18.87;66.68;101966.93;2395107;74;51478;-76
2022/10/12 00:24:21;;;;;;;;;;;;;;;18.84;66.88;101974.45;2397582;73;50454;-76
2022/10/12 00:27:23;;;;;;;;;;;;;;;18.86;66.86;101973.30;2397900;73;51515;-76
2022/10/12 00:30:24;;;;;;;;;;;;;;;18.88;66.85;101972.66;2350097;74;49502;-76
2022/10/12 00:33:29;;;;;;;;;;;;;;;18.85;66.87;101986.35;2376977;74;50709;-76
2022/10/12 00:36:32;;;;;;;;;;;;;;;18.88;66.66;101983.86;2377205;74;50390;-76
2022/10/12 00:39:34;;;;;;;;;;;;;;;18.85;66.80;101979.64;2378952;74;50274;-76
2022/10/12 00:42:36;;;;;;;;;;;;;;;18.82;67.04;101972.41;2352965;75;51191;-76
2022/10/12 00:45:37;;;;;;;;;;;;;;;18.87;66.68;101976.32;2353179;75;50386;-76
2022/10/12 00:48:39;;;;;;;;;;;;;;;18.85;66.74;101972.10;2377538;74;50383;-76
2022/10/12 00:51:40;;;;;;;;;;;;;;;18.86;66.77;101977.33;2374664;75;50726;-77
2022/10/12 00:54:43;;;;;;;;;;;;;;;18.85;66.78;101973.45;2355201;75;51299;-76
2022/10/12 00:57:45;;;;;;;;;;;;;;;18.83;67.01;101980.32;2378657;75;51530;-76
2022/10/12 01:00:47;;;;;;;;;;;;;;;18.82;66.91;101977.27;2378562;75;50764;-77
2022/10/12 01:03:49;;;;;;;;;;;;;;;18.82;66.94;101974.59;2378509;75;51539;-76
2022/10/12 01:06:51;;;;;;;;;;;;;;;18.81;66.92;101984.98;2355012;75;49850;-76
2022/10/12 01:09:52;;;;;;;;;;;;;;;18.78;67.10;101983.09;2355702;75;52269;-76
2022/10/12 01:12:54;;;;;;;;;;;;;;;18.80;67.01;101987.80;2378721;75;50300;-77
2022/10/12 01:15:57;;;;;;;;;;;;;;;18.78;67.06;101987.98;2378549;75;50353;-77
2022/10/12 01:19:03;;;;;;;;;;;;;;;18.77;67.06;101986.27;2359105;74;50930;-76
2022/10/12 01:22:05;;;;;;;;;;;;;;;18.76;67.19;101985.10;2405895;73;51739;-77
2022/10/12 01:25:25;;;;;;;;;;;;;;;18.77;67.02;101994.31;2391123;74;50484;-76
2022/10/12 01:28:40;;;;;;;;;;;;;;;18.77;67.07;101986.27;2378674;75;50299;-76
2022/10/12 01:31:43;;;;;;;;;;;;;;;18.80;66.87;101989.15;2355320;75;50928;-76
2022/10/12 01:34:49;;;;;;;;;;;;;;;18.81;66.88;101986.33;2377320;74;51487;-75
2022/10/12 01:37:58;;;;;;;;;;;;;;;18.78;67.08;101992.47;2378797;75;51558;-77
2022/10/12 01:41:02;;;;;;;;;;;;;;;18.76;67.22;101991.80;2378739;75;50801;-76
2022/10/12 01:44:03;;;;;;;;;;;;;;;18.75;67.18;101994.95;2355237;74;50156;-76
2022/10/12 01:47:05;;;;;;;;;;;;;;;18.72;67.58;101989.37;2380274;73;50314;-75
2022/10/12 01:50:07;;;;;;;;;;;;;;;18.75;67.26;101992.28;2350944;74;50813;-75
2022/10/12 01:53:25;;;;;;;;;;;;;;;18.78;66.92;101999.17;2390555;74;50299;-75
2022/10/12 01:56:31;;;;;;;;;;;;;;;18.77;66.86;101992.14;2371851;74;51516;-75
2022/10/12 01:59:34;;;;;;;;;;;;;;;18.80;66.73;101995.34;2390688;74;51486;-75
2022/10/12 02:02:38;;;;;;;;;;;;;;;18.79;66.70;101992.33;2390673;74;51667;-75
2022/10/12 02:05:44;;;;;;;;;;;;;;;18.77;66.78;101992.97;2390100;74;51646;-75
2022/10/12 02:08:50;;;;;;;;;;;;;;;18.77;66.81;101992.14;2372312;74;52733;-75
2022/10/12 02:11:52;;;;;;;;;;;;;;;18.75;66.80;101990.94;2390422;74;51499;-75
2022/10/12 02:14:54;;;;;;;;;;;;;;;18.80;66.60;101987.30;2372315;74;50727;-75
2022/10/12 02:17:55;;;;;;;;;;;;;;;18.74;66.82;101983.87;2392178;74;50410;-75
2022/10/12 02:20:57;;;;;;;;;;;;;;;18.76;66.75;101979.73;2360447;75;51793;-75
2022/10/12 02:24:00;;;;;;;;;;;;;;;18.79;66.72;101983.45;2379647;74;50427;-75
2022/10/12 02:27:01;;;;;;;;;;;;;;;18.75;66.81;101981.55;2386190;74;51454;-75
2022/10/12 02:30:03;;;;;;;;;;;;;;;18.72;66.86;101969.77;2385442;73;51520;-75
2022/10/12 02:33:09;;;;;;;;;;;;;;;18.73;66.85;101964.77;2354692;75;52484;-75
2022/10/12 02:36:12;;;;;;;;;;;;;;;18.77;66.72;101976.05;2382807;74;50869;-75
2022/10/12 02:39:17;;;;;;;;;;;;;;;18.75;66.80;101964.59;2386211;74;50431;-76
2022/10/12 02:42:26;;;;;;;;;;;;;;;18.74;67.06;101974.48;2386162;74;51491;-75
2022/10/12 02:45:28;;;;;;;;;;;;;;;18.76;66.95;101967.67;2352964;74;49586;-76
2022/10/12 02:48:30;;;;;;;;;;;;;;;18.72;67.23;101965.74;2371636;74;50404;-75
2022/10/12 02:51:31;;;;;;;;;;;;;;;18.71;67.25;101962.22;2393714;74;50384;-75
2022/10/12 02:54:33;;;;;;;;;;;;;;;18.71;67.19;101960.05;2397619;74;50755;-75
2022/10/12 02:57:34;;;;;;;;;;;;;;;18.70;67.04;101957.87;2376950;74;50956;-75
2022/10/12 03:00:36;;;;;;;;;;;;;;;18.74;67.04;101957.05;2397770;73;50678;-74
2022/10/12 03:03:38;;;;;;;;;;;;;;;18.70;67.15;101952.50;2397378;73;52513;-75
2022/10/12 03:06:41;;;;;;;;;;;;;;;18.72;67.03;101965.74;2397641;74;51569;-75
2022/10/12 03:09:42;;;;;;;;;;;;;;;18.70;67.17;101961.02;2350203;74;49609;-75
2022/10/12 03:12:44;;;;;;;;;;;;;;;18.67;67.28;101963.51;2397826;74;50253;-75
2022/10/12 03:15:46;;;;;;;;;;;;;;;18.67;67.22;101958.65;2376856;74;50641;-75
2022/10/12 03:18:47;;;;;;;;;;;;;;;18.66;67.35;101962.34;2361021;74;50732;-76
2022/10/12 03:21:49;;;;;;;;;;;;;;;18.67;67.23;101962.67;2332838;76;51550;-74
2022/10/12 03:24:50;;;;;;;;;;;;;;;18.66;67.16;101953.80;2306379;76;51518;-74
2022/10/12 03:27:52;;;;;;;;;;;;;;;18.65;67.17;101953.93;2306441;76;51519;-74
2022/10/12 03:30:54;;;;;;;;;;;;;;;18.63;67.37;101952.76;2328961;76;50548;-74
2022/10/12 03:33:55;;;;;;;;;;;;;;;18.65;67.19;101956.61;2328798;76;51472;-75
2022/10/12 03:36:57;;;;;;;;;;;;;;;18.71;66.87;101960.05;2305742;76;51574;-75
2022/10/12 03:39:58;;;;;;;;;;;;;;;18.67;67.13;101957.31;2328946;76;50361;-76
2022/10/12 03:43:00;;;;;;;;;;;;;;;18.67;66.85;101952.78;2329037;76;51449;-75
2022/10/12 03:46:01;;;;;;;;;;;;;;;18.68;66.68;101948.29;2306789;76;50999;-74
2022/10/12 03:49:03;;;;;;;;;;;;;;;18.68;67.06;101945.61;2371762;74;50389;-74
2022/10/12 03:52:05;;;;;;;;;;;;;;;18.69;67.22;101947.28;2375593;74;50411;-74
2022/10/12 03:55:06;;;;;;;;;;;;;;;18.70;67.13;101947.14;2378975;74;50347;-74
2022/10/12 03:58:08;;;;;;;;;;;;;;;18.70;67.22;101949.83;2348269;74;50994;-74
2022/10/12 04:01:09;;;;;;;;;;;;;;;18.71;67.17;101950.16;2375429;74;50352;-74
2022/10/12 04:04:11;;;;;;;;;;;;;;;18.67;67.33;101947.92;2406544;74;50379;-74
2022/10/12 04:07:13;;;;;;;;;;;;;;;18.66;67.37;101954.30;2409158;73;50269;-73
2022/10/12 04:10:14;;;;;;;;;;;;;;;18.64;67.40;101953.59;2350050;74;51739;-73
2022/10/12 04:13:16;;;;;;;;;;;;;;;18.69;67.12;101952.64;2406583;74;50395;-74
2022/10/12 04:16:18;;;;;;;;;;;;;;;18.69;67.21;101949.96;2373119;73;51490;-74
2022/10/12 04:19:20;;;;;;;;;;;;;;;18.69;67.22;101953.98;2383247;74;50367;-74
2022/10/12 04:22:23;;;;;;;;;;;;;;;18.69;67.17;101949.45;2354891;74;52735;-74
2022/10/12 04:25:24;;;;;;;;;;;;;;;18.65;67.49;101957.95;2352237;74;22362;-75
2022/10/12 04:28:26;;;;;;;;;;;;;;;18.64;67.43;101962.48;2351846;74;50670;-74
2022/10/12 04:31:28;;;;;;;;;;;;;;;18.62;67.56;101954.23;2384813;74;51534;-74
2022/10/12 04:34:29;;;;;;;;;;;;;;;18.65;67.52;101957.95;2351192;74;52652;-77
2022/10/12 04:37:31;;;;;;;;;;;;;;;18.62;67.62;101956.92;2384799;74;51511;-75
2022/10/12 04:40:32;;;;;;;;;;;;;;;18.62;67.51;101960.44;2384842;74;51467;-77
2022/10/12 04:43:34;;;;;;;;;;;;;;;18.62;67.47;101960.94;2384475;74;50397;-77
2022/10/12 04:46:35;;;;;;;;;;;;;;;18.66;67.22;101963.67;2343103;74;49496;-76
2022/10/12 04:49:37;;;;;;;;;;;;;;;18.65;67.27;101973.56;2365024;74;50190;-76
2022/10/12 04:52:39;;;;;;;;;;;;;;;18.69;67.75;101964.70;2406267;74;50632;-75
2022/10/12 04:55:40;;;;;;;;;;;;;;;18.65;67.86;101969.55;2406015;74;51500;-76
2022/10/12 04:58:42;;;;;;;;;;;;;;;18.65;67.71;101967.33;2348530;74;50173;-76
2022/10/12 05:01:43;;;;;;;;;;;;;;;18.66;67.65;101976.58;2375717;74;50725;-76
2022/10/12 05:04:45;;;;;;;;;;;;;;;18.72;67.21;101971.10;2406777;74;51474;-75
2022/10/12 05:07:46;;;;;;;;;;;;;;;18.74;67.06;101978.50;2375685;74;51507;-76
2022/10/12 05:10:48;;;;;;;;;;;;;;;18.72;66.95;101976.47;2375721;74;51026;-77
2022/10/12 05:13:50;;;;;;;;;;;;;;;18.71;66.95;101977.47;2375515;74;50370;-77
2022/10/12 05:16:51;;;;;;;;;;;;;;;18.72;66.85;101971.94;2399796;73;50331;-77
2022/10/12 05:19:53;;;;;;;;;;;;;;;18.72;66.86;101972.44;2396532;74;50239;-78
2022/10/12 05:22:56;;;;;;;;;;;;;;;18.71;66.49;101976.97;2376851;74;50086;-77
2022/10/12 05:25:58;;;;;;;;;;;;;;;18.74;66.18;101974.48;2355846;75;51631;-77
2022/10/12 05:28:59;;;;;;;;;;;;;;;18.72;66.04;101973.28;2378665;75;51495;-77
2022/10/12 05:32:01;;;;;;;;;;;;;;;18.71;66.13;101978.81;2378808;75;50820;-76
2022/10/12 05:35:03;;;;;;;;;;;;;;;18.68;65.76;101976.44;2381690;73;50951;-77
2022/10/12 05:38:05;;;;;;;;;;;;;;;18.71;66.09;101982.33;2353781;75;50384;-77
2022/10/12 05:41:06;;;;;;;;;;;;;;;18.68;66.57;101983.14;2382536;74;50757;-77
2022/10/12 05:44:08;;;;;;;;;;;;;;;18.66;66.23;101984.62;2386003;74;51511;-77
2022/10/12 05:47:09;;;;;;;;;;;;;;;18.66;66.07;101985.13;2368369;73;50072;-77
2022/10/12 05:50:11;;;;;;;;;;;;;;;18.66;65.77;101983.78;2361273;74;51524;-77
2022/10/12 05:53:12;;;;;;;;;;;;;;;18.66;66.05;101983.78;2378300;74;51442;-77
2022/10/12 05:56:14;;;;;;;;;;;;;;;18.67;66.47;101981.44;2386457;74;50385;-77
2022/10/12 05:59:16;;;;;;;;;;;;;;;18.66;66.41;101981.94;2368645;74;49599;-77
2022/10/12 06:02:17;;;;;;;;;;;;;;;18.66;66.42;101990.48;2386612;74;50667;-77
2022/10/12 06:05:19;;;;;;;;;;;;;;;18.68;66.48;101984.48;2386306;74;50847;-77
2022/10/12 06:08:20;;;;;;;;;;;;;;;18.66;66.51;101973.06;2384832;74;51533;-77
2022/10/12 06:11:22;;;;;;;;;;;;;;;18.66;66.41;101977.92;2355118;74;51810;-77
2022/10/12 06:14:23;;;;;;;;;;;;;;;18.65;66.17;101980.73;2356535;74;51493;-78
2022/10/12 06:17:25;;;;;;;;;;;;;;;18.64;66.23;101983.09;2381669;74;51429;-77
2022/10/12 06:20:27;;;;;;;;;;;;;;;18.65;65.88;101986.97;2349225;75;54044;-77
2022/10/12 06:23:28;;;;;;;;;;;;;;;18.65;65.67;101991.46;2346273;75;51433;-77
2022/10/12 06:26:30;;;;;;;;;;;;;;;18.66;65.98;101993.17;2369273;75;50231;-77
2022/10/12 06:29:31;;;;;;;;;;;;;;;18.67;65.98;101997.02;2369393;75;50443;-77
2022/10/12 06:32:33;;;;;;;;;;;;;;;18.69;65.88;101998.22;2369585;75;50486;-77
2022/10/12 06:35:34;;;;;;;;;;;;;;;18.66;66.15;102002.55;2319949;75;51902;-77
2022/10/12 06:38:36;;;;;;;;;;;;;;;18.67;66.29;101998.86;2346602;75;51411;-77
2022/10/12 06:41:38;;;;;;;;;;;;;;;18.71;66.22;101994.91;2369399;75;51548;-77
2022/10/12 06:44:39;;;;;;;;;;;;;;;18.75;66.09;102001.66;2369353;75;51545;-77
2022/10/12 06:47:41;;;;;;;;;;;;;;;18.73;66.09;102000.96;2358086;74;52940;-77
2022/10/12 06:50:42;;;;;;;;;;;;;;;18.76;65.96;102006.05;2355323;74;50654;-77
2022/10/12 06:53:44;;;;;;;;;;;;;;;18.81;65.74;102005.09;2377060;74;50341;-77
2022/10/12 06:56:45;;;;;;;;;;;;;;;18.85;65.56;102004.28;2397992;74;50236;-77
2022/10/12 06:59:47;;;;;;;;;;;;;;;18.86;65.44;102009.52;2377238;74;50062;-77
2022/10/12 07:02:49;;;;;;;;;;;;;;;18.87;65.34;102005.81;2398049;74;50355;-77
2022/10/12 07:05:50;;;;;;;;;;;;;;;18.88;65.25;102010.20;2397855;74;50410;-78
2022/10/12 07:08:53;;;;;;;;;;;;;;;18.88;65.17;102003.50;2377345;74;50290;-77
2022/10/12 07:11:54;;;;;;;;;;;;;;;18.88;65.10;102002.16;2377350;74;52560;-77
2022/10/12 07:14:57;;;;;;;;;;;;;;;18.89;65.00;102008.36;2377248;74;51401;-78
2022/10/12 07:17:59;;;;;;;;;;;;;;;18.90;64.96;102004.67;2406986;73;50700;-77
2022/10/12 07:21:01;;;;;;;;;;;;;;;18.90;64.87;102010.88;2394011;74;51611;-77
2022/10/12 07:24:03;;;;;;;;;;;;;;;18.90;64.82;102014.06;2349964;74;49655;-77
2022/10/12 07:27:06;;;;;;;;;;;;;;;18.90;64.76;102006.02;2377111;74;50086;-77
2022/10/12 07:30:09;;;;;;;;;;;;;;;18.90;64.67;102009.53;2398128;74;50312;-77
2022/10/12 07:33:11;;;;;;;;;;;;;;;18.91;64.63;102013.08;2377355;74;51676;-77
2022/10/12 07:36:12;;;;;;;;;;;;;;;18.90;64.60;102009.53;2377215;74;50090;-77
2022/10/12 07:39:14;;;;;;;;;;;;;;;18.89;64.55;102022.61;2377442;74;51573;-77
2022/10/12 07:42:15;;;;;;;;;;;;;;;18.89;64.49;102017.25;2398105;74;51480;-77
2022/10/12 07:45:17;;;;;;;;;;;;;;;18.89;64.47;102017.25;2377295;74;50694;-77
2022/10/12 07:48:19;;;;;;;;;;;;;;;18.89;64.41;102011.88;2350671;74;51891;-77
2022/10/12 07:51:20;;;;;;;;;;;;;;;18.89;64.34;102019.09;2325066;75;51569;-77
2022/10/12 07:54:22;;;;;;;;;;;;;;;18.88;64.32;102006.66;2335411;76;51538;-77
2022/10/12 07:57:24;;;;;;;;;;;;;;;18.89;64.22;102014.56;2335625;75;50623;-78
2022/10/12 08:00:25;;;;;;;;;;;;;;;18.89;64.21;102013.73;2287786;76;52518;-77
2022/10/12 08:03:27;;;;;;;;;;;;;;;18.88;64.20;102011.55;2313396;76;51828;-77
2022/10/12 08:06:29;;;;;;;;;;;;;;;18.88;64.14;102014.70;2335502;75;50343;-78
2022/10/12 08:09:31;;;;;;;;;;;;;;;18.87;64.11;102007.16;2335690;75;51616;-77
2022/10/12 08:12:33;;;;;;;;;;;;;;;18.88;64.06;102006.19;2335650;76;50809;-77
2022/10/12 08:15:34;;;;;;;;;;;;;;;18.85;64.11;102005.12;2313321;76;52541;-77
2022/10/12 08:18:36;;;;;;;;;;;;;;;18.87;64.04;102013.03;2382383;74;50464;-78
2022/10/12 08:21:37;;;;;;;;;;;;;;;18.85;64.05;102005.63;2354552;75;50321;-77
2022/10/12 08:24:39;;;;;;;;;;;;;;;18.84;64.11;102014.17;2378653;75;51457;-77
2022/10/12 08:27:40;;;;;;;;;;;;;;;18.84;64.07;102003.45;2382587;74;49513;-77
2022/10/12 08:30:42;;;;;;;;;;;;;;;18.85;64.02;102015.84;2378505;75;50293;-77
2022/10/12 08:33:44;;;;;;;;;;;;;;;18.84;64.04;102008.81;2378167;74;50735;-77
2022/10/12 08:36:45;;;;;;;;;;;;;;;18.83;64.03;102013.84;2378597;75;50746;-77
2022/10/12 08:39:47;;;;;;;;;;;;;;;18.83;64.01;102006.27;2382646;74;50982;-77
2022/10/12 08:42:50;;;;;;;;;;;;;;;18.84;63.98;102016.02;2378919;75;50706;-77
2022/10/12 08:45:52;;;;;;;;;;;;;;;18.82;64.00;102009.45;2378752;75;50785;-77
2022/10/12 08:49:01;;;;;;;;;;;;;;;18.83;63.91;102011.63;2358384;74;51355;-77
2022/10/12 08:52:05;;;;;;;;;;;;;;;18.82;63.91;102005.94;2315701;76;49815;-77
2022/10/12 08:55:08;;;;;;;;;;;;;;;18.81;63.95;102008.28;2338908;73;51568;-77
2022/10/12 08:58:11;;;;;;;;;;;;;;;18.81;63.87;102007.78;2382817;74;51532;-77
2022/10/12 09:01:40;;;;;;;;;;;;;;;18.79;63.98;102007.08;2384871;74;51507;-77
2022/10/12 09:04:42;;;;;;;;;;;;;;;18.80;63.92;102006.07;2369397;73;22324;-77
2022/10/12 09:07:45;;;;;;;;;;;;;;;18.78;63.99;102005.88;2383866;74;50867;-77
2022/10/12 09:10:48;;;;;;;;;;;;;;;18.75;64.06;102002.13;2398207;74;50879;-77
2022/10/12 09:13:51;;;;;;;;;;;;;;;18.75;64.00;101997.64;2397756;73;50671;-77
2022/10/12 09:16:53;;;;;;;;;;;;;;;18.73;64.06;101995.59;2375825;74;50184;-77
2022/10/12 09:20:00;;;;;;;;;;;;;;;18.74;63.96;101998.61;2381375;73;50446;-77
2022/10/12 09:23:03;;;;;;;;;;;;;;;18.76;63.99;101993.14;2368628;75;50794;-77
2022/10/12 09:26:06;;;;;;;;;;;;;;;18.74;64.04;101997.27;2369124;75;52116;-77
2022/10/12 09:29:12;;;;;;;;;;;;;;;18.73;64.05;101988.89;2366241;75;51519;-77
2022/10/12 09:32:25;;;;;;;;;;;;;;;18.70;64.06;101991.85;2368490;74;50875;-77
2022/10/12 09:35:26;;;;;;;;;;;;;;;18.71;64.04;101989.03;2348537;74;51492;-77
2022/10/12 09:38:28;;;;;;;;;;;;;;;18.68;64.02;101991.19;2369502;75;51568;-77
2022/10/12 09:41:31;;;;;;;;;;;;;;;18.70;63.92;101990.05;2346233;75;51351;-77
2022/10/12 09:44:50;;;;;;;;;;;;;;;18.69;63.96;101988.33;2372902;74;51482;-77
2022/10/12 09:48:11;;;;;;;;;;;;;;;18.64;63.94;101979.06;2382807;74;51525;-77
2022/10/12 09:51:15;;;;;;;;;;;;;;;18.65;64.05;101978.06;2380607;74;51494;-77
2022/10/12 09:54:17;;;;;;;;;;;;;;;18.65;64.01;101975.38;2352354;74;22408;-77
2022/10/12 09:57:20;;;;;;;;;;;;;;;18.66;63.95;101981.94;2384802;74;50438;-77
2022/10/12 10:00:23;;;;;;;;;;;;;;;18.66;63.92;101982.44;2383419;74;50480;-77
2022/10/12 10:03:24;;;;;;;;;;;;;;;18.64;63.89;101976.38;2384536;74;51671;-77
2022/10/12 10:06:26;;;;;;;;;;;;;;;18.64;63.94;101979.06;2352791;74;51029;-76
2022/10/12 10:09:29;;;;;;;;;;;;;;;18.65;63.88;101972.70;2353111;74;51513;-76
2022/10/12 10:12:30;;;;;;;;;;;;;;;18.65;63.82;101976.72;2353242;74;50448;-76
2022/10/12 10:15:32;;;;;;;;;;;;;;;18.63;63.87;101973.37;2386264;74;51564;-75
2022/10/12 10:18:35;;;;;;;;;;;;;;;18.58;63.99;101979.17;2348933;73;51161;-75
2022/10/12 10:21:37;;;;;;;;;;;;;;;18.60;64.06;101976.33;2387072;74;51577;-75
2022/10/12 10:24:38;;;;;;;;;;;;;;;18.62;64.03;101971.66;2384133;74;51518;-75
2022/10/12 10:27:40;;;;;;;;;;;;;;;18.63;63.97;101966.67;2351392;74;52751;-74
2022/10/12 10:30:42;;;;;;;;;;;;;;;18.60;64.03;101974.98;2351194;74;50991;-75
2022/10/12 10:33:43;;;;;;;;;;;;;;;18.63;63.88;101968.01;2351272;74;51608;-74
2022/10/12 10:36:49;;;;;;;;;;;;;;;18.63;63.87;101963.98;2384456;74;51507;-73
2022/10/12 10:39:51;;;;;;;;;;;;;;;18.64;63.85;101965.66;2377173;74;50498;-73
2022/10/12 10:42:55;;;;;;;;;;;;;;;18.67;63.73;101970.20;2355379;75;51031;-74
2022/10/12 10:45:58;;;;;;;;;;;;;;;18.67;63.76;101958.65;2377535;74;52256;-74
2022/10/12 10:49:05;;;;;;;;;;;;;;;18.66;63.87;101959.66;2379322;74;50812;-74
2022/10/12 10:52:07;;;;;;;;;;;;;;;18.68;63.81;101958.51;2388059;73;51490;-75
2022/10/12 10:55:17;;;;;;;;;;;;;;;18.76;63.56;101955.61;2351069;74;49607;-74
2022/10/12 10:58:23;;;;;;;;;;;;;;;18.72;63.71;101949.66;2324931;74;51270;-74
2022/10/12 11:01:32;;;;;;;;;;;;;;;18.74;63.70;101949.02;2384559;74;51535;-73
2022/10/12 11:04:35;;;;;;;;;;;;;;;18.71;63.76;101946.64;2384191;74;50750;-74
2022/10/12 11:07:44;;;;;;;;;;;;;;;18.66;63.79;101947.09;2351199;74;51038;-74
2022/10/12 11:10:54;;;;;;;;;;;;;;;18.66;63.75;101938.21;2383968;74;51473;-75
2022/10/12 11:14:03;;;;;;;;;;;;;;;18.64;63.89;101949.07;2384266;74;51509;-75
2022/10/12 11:17:05;;;;;;;;;;;;;;;18.68;63.87;101941.59;2384500;74;50365;-74
2022/10/12 11:20:11;;;;;;;;;;;;;;;18.70;63.80;101940.44;2347650;74;50174;-74
2022/10/12 11:23:24;;;;;;;;;;;;;;;18.68;63.68;101926.84;2397882;74;52407;-74
2022/10/12 11:26:29;;;;;;;;;;;;;;;18.68;63.70;101925.00;2370696;73;51572;-75
2022/10/12 11:29:31;;;;;;;;;;;;;;;18.71;63.70;101923.85;2397712;74;50289;-74
2022/10/12 11:32:34;;;;;;;;;;;;;;;18.70;63.65;101916.31;2377071;74;51560;-75
2022/10/12 11:35:36;;;;;;;;;;;;;;;18.68;63.67;101914.27;2424137;73;51610;-74
2022/10/12 11:38:39;;;;;;;;;;;;;;;18.69;63.69;101913.77;2432724;73;50785;-75
2022/10/12 11:41:45;;;;;;;;;;;;;;;18.69;63.58;101901.20;2429606;73;51455;-74
2022/10/12 11:44:46;;;;;;;;;;;;;;;18.70;63.53;101902.03;2395936;73;23117;-75
2022/10/12 11:47:48;;;;;;;;;;;;;;;18.67;63.59;101900.50;2386381;74;51533;-75
2022/10/12 11:50:49;;;;;;;;;;;;;;;18.70;63.51;101904.72;2385910;73;51485;-75
2022/10/12 11:53:52;;;;;;;;;;;;;;;18.74;63.44;101899.91;2400434;74;50796;-74
2022/10/12 11:56:55;;;;;;;;;;;;;;;18.74;63.32;101902.09;2356160;74;49700;-74
2022/10/12 12:00:07;;;;;;;;;;;;;;;18.73;63.39;101899.07;2398126;74;51890;-74
2022/10/12 12:03:16;;;;;;;;;;;;;;;18.75;63.38;101890.38;2386389;74;51599;-73
2022/10/12 12:06:32;;;;;;;;;;;;;;;18.78;63.30;101882.06;2382337;75;50838;-76
2022/10/12 12:09:34;;;;;;;;;;;;;;;18.80;63.22;101881.38;2355714;75;51315;-74
2022/10/12 12:12:36;;;;;;;;;;;;;;;18.80;63.14;101874.67;2355571;75;51600;-74
2022/10/12 12:15:41;;;;;;;;;;;;;;;18.76;63.23;101874.66;2361126;74;51518;-74
2022/10/12 12:18:51;;;;;;;;;;;;;;;18.74;63.17;101873.09;2375475;74;50309;-76
2022/10/12 12:22:11;;;;;;;;;;;;;;;18.74;63.19;101869.91;2359734;74;51843;-74
2022/10/12 12:25:29;;;;;;;;;;;;;;;18.76;63.22;101862.59;2405662;74;50710;-74
2022/10/12 12:28:30;;;;;;;;;;;;;;;18.74;63.23;101863.20;2373371;74;51563;-74
2022/10/12 12:31:32;;;;;;;;;;;;;;;18.73;63.29;101856.17;2378630;75;51439;-77
2022/10/12 12:34:34;;;;;;;;;;;;;;;18.73;63.34;101850.81;2378572;75;51514;-77
2022/10/12 12:37:35;;;;;;;;;;;;;;;18.71;63.45;101850.12;2378716;74;50385;-77
2022/10/12 12:40:38;;;;;;;;;;;;;;;18.68;63.30;101852.61;2378855;75;50415;-78
2022/10/12 12:43:47;;;;;;;;;;;;;;;18.68;63.31;101848.59;2378681;75;51487;-78
2022/10/12 12:46:53;;;;;;;;;;;;;;;18.70;63.29;101856.45;2330504;75;49455;-77
2022/10/12 12:49:56;;;;;;;;;;;;;;;18.70;63.44;101852.44;2379007;74;50311;-76
2022/10/12 12:52:59;;;;;;;;;;;;;;;18.70;63.42;101859.14;2378823;75;50852;-77
2022/10/12 12:56:05;;;;;;;;;;;;;;;18.70;63.33;101861.34;2366454;74;50814;-77
2022/10/12 12:59:25;;;;;;;;;;;;;;;18.71;63.41;101854.14;2342159;75;51731;-77
2022/10/12 13:02:43;;;;;;;;;;;;;;;18.74;63.29;101845.78;2378870;75;50850;-76
2022/10/12 13:05:47;;;;;;;;;;;;;;;18.74;63.23;101844.95;2378533;75;51665;-77
2022/10/12 13:08:53;;;;;;;;;;;;;;;18.75;63.19;101845.28;2377452;74;52425;-76
2022/10/12 13:11:56;;;;;;;;;;;;;;;18.76;63.24;101839.80;2363141;74;50782;-76
2022/10/12 13:14:59;;;;;;;;;;;;;;;18.75;63.27;101839.91;2378360;74;50700;-77
2022/10/12 13:18:08;;;;;;;;;;;;;;;18.77;63.27;101830.75;2378832;75;50713;-76
2022/10/12 13:21:11;;;;;;;;;;;;;;;18.76;63.24;101823.72;2348288;74;50287;-76
2022/10/12 13:24:23;;;;;;;;;;;;;;;18.75;63.25;101824.70;2373017;75;51767;-76
2022/10/12 13:27:34;;;;;;;;;;;;;;;18.75;63.22;101827.38;2366275;74;50785;-76
2022/10/12 13:30:37;;;;;;;;;;;;;;;18.76;63.22;101829.58;2394815;74;22331;-75
2022/10/12 13:33:40;;;;;;;;;;;;;;;18.76;63.18;101819.69;2397689;74;50430;-76
2022/10/12 13:36:46;;;;;;;;;;;;;;;18.76;63.13;101814.84;2397775;74;51593;-76
2022/10/12 13:39:48;;;;;;;;;;;;;;;18.74;63.17;101817.63;2398058;74;50764;-77
2022/10/12 13:42:50;;;;;;;;;;;;;;;18.74;63.15;101817.63;2377559;74;50304;-77
2022/10/12 13:45:52;;;;;;;;;;;;;;;18.75;63.17;101812.63;2397895;74;50433;-77
2022/10/12 13:48:53;;;;;;;;;;;;;;;18.74;63.16;101817.63;2350182;74;49576;-79
2022/10/12 13:51:59;;;;;;;;;;;;;;;18.74;63.10;101813.61;2377413;74;50296;-77
2022/10/12 13:55:00;;;;;;;;;;;;;;;18.76;63.15;101813.50;2397840;73;50785;-77
2022/10/12 13:58:02;;;;;;;;;;;;;;;18.75;63.13;101813.10;2391218;74;50751;-78
2022/10/12 14:01:03;;;;;;;;;;;;;;;18.74;63.11;101809.59;2377258;74;52613;-76
2022/10/12 14:04:08;;;;;;;;;;;;;;;18.74;63.06;101809.59;2397874;74;50626;-77
2022/10/12 14:07:10;;;;;;;;;;;;;;;18.76;62.99;101796.91;2398135;74;22405;-77
2022/10/12 14:10:16;;;;;;;;;;;;;;;18.77;63.02;101789.19;2397226;74;50451;-77
2022/10/12 14:13:19;;;;;;;;;;;;;;;18.79;63.06;101795.75;2373306;73;52457;-78
2022/10/12 14:16:21;;;;;;;;;;;;;;;18.79;62.97;101794.41;2406320;73;52331;-76
2022/10/12 14:19:41;;;;;;;;;;;;;;;18.77;62.97;101789.70;2413432;73;51496;-77
2022/10/12 14:22:44;;;;;;;;;;;;;;;18.76;62.89;101786.69;2413322;73;51530;-77
2022/10/12 14:25:53;;;;;;;;;;;;;;;18.76;63.03;101790.70;2363213;73;51908;-78
2022/10/12 14:28:55;;;;;;;;;;;;;;;18.75;63.05;101788.50;2383187;74;50423;-76
2022/10/12 14:31:57;;;;;;;;;;;;;;;18.77;63.08;101778.97;2335511;76;51552;-76
2022/10/12 14:35:09;;;;;;;;;;;;;;;18.75;63.10;101770.20;2335393;75;51669;-79
2022/10/12 14:38:29;;;;;;;;;;;;;;;18.74;63.13;101773.39;2313349;76;52524;-76
2022/10/12 14:41:32;;;;;;;;;;;;;;;18.75;63.13;101769.73;2335419;76;50421;-76
2022/10/12 14:44:35;;;;;;;;;;;;;;;18.75;63.16;101768.86;2335367;76;51593;-76
2022/10/12 14:47:37;;;;;;;;;;;;;;;18.76;63.13;101763.39;2332970;76;51593;-77
2022/10/12 14:50:39;;;;;;;;;;;;;;;18.73;63.13;101762.34;2313592;76;49642;-75
2022/10/12 14:53:40;;;;;;;;;;;;;;;18.74;63.07;101760.48;2357211;73;50394;-79
2022/10/12 14:56:42;;;;;;;;;;;;;;;18.77;63.36;101762.37;2362959;74;51556;-75
2022/10/12 14:59:45;;;;;;;;;;;;;;;18.81;63.42;101758.39;2384853;73;50269;-76
2022/10/12 15:02:46;;;;;;;;;;;;;;;18.82;63.51;101758.72;2370273;74;52743;-77
2022/10/12 15:05:48;;;;;;;;;;;;;;;18.84;63.56;101756.73;2406716;73;50707;-78
2022/10/12 15:08:51;;;;;;;;;;;;;;;18.86;63.52;101749.88;2375699;74;51793;-78
2022/10/12 15:11:52;;;;;;;;;;;;;;;18.88;63.60;101748.73;2375472;74;50727;-75
2022/10/12 15:14:55;;;;;;;;;;;;;;;18.85;63.83;101753.04;2374130;74;51516;-76
2022/10/12 15:17:57;;;;;;;;;;;;;;;18.87;64.01;101744.34;2393616;74;51568;-76
2022/10/12 15:20:58;;;;;;;;;;;;;;;18.88;63.85;101748.73;2398297;74;50679;-79
2022/10/12 15:24:00;;;;;;;;;;;;;;;18.85;63.66;101739.63;2397743;74;50793;-75
2022/10/12 15:27:01;;;;;;;;;;;;;;;18.82;63.84;101742.63;2377082;74;52582;-77
2022/10/12 15:30:03;;;;;;;;;;;;;;;18.82;63.75;101737.27;2385748;74;51532;-75
2022/10/12 15:33:05;;;;;;;;;;;;;;;18.80;63.92;101727.70;2378200;75;51549;-76
2022/10/12 15:36:06;;;;;;;;;;;;;;;18.81;63.80;101732.92;2345180;75;51492;-75
2022/10/12 15:39:08;;;;;;;;;;;;;;;18.81;63.83;101736.94;2318936;75;49343;-75
2022/10/12 15:42:11;;;;;;;;;;;;;;;18.83;64.24;101732.75;2345240;75;50370;-75